createdAt,value
2023-08-15T00:00:14.292Z,1010.45
2023-08-15T00:01:59.324Z,1010.48
2023-08-15T00:03:44.336Z,1010.4
2023-08-15T00:05:29.343Z,1010.42
2023-08-15T00:07:14.346Z,1010.39
2023-08-15T00:08:59.341Z,1010.39
2023-08-15T00:10:44.342Z,1010.38
2023-08-15T00:12:29.327Z,1010.35
2023-08-15T00:14:14.375Z,1010.28
2023-08-15T00:15:59.332Z,1010.18
2023-08-15T00:17:44.418Z,1010.15
2023-08-15T00:19:29.342Z,1010.15
2023-08-15T00:21:14.324Z,1010.11
2023-08-15T00:22:59.331Z,1010.09
2023-08-15T00:24:44.392Z,1010.05
2023-08-15T00:26:29.341Z,1010.09
2023-08-15T00:28:14.328Z,1010.09
2023-08-15T00:29:59.335Z,1010.04
2023-08-15T00:31:44.344Z,1010.1
2023-08-15T00:33:29.357Z,1010.01
2023-08-15T00:35:14.356Z,1010.1
2023-08-15T00:36:59.347Z,1010.12
2023-08-15T00:38:44.363Z,1010.1
2023-08-15T00:40:29.391Z,1010.11
2023-08-15T00:42:15.006Z,1010.09
2023-08-15T00:43:59.383Z,1010.18
2023-08-15T00:45:44.358Z,1010.2
2023-08-15T00:47:29.440Z,1010.15
2023-08-15T00:49:14.364Z,1010.14
2023-08-15T00:50:59.379Z,1010.17
2023-08-15T00:52:44.393Z,1010.22
2023-08-15T00:54:29.416Z,1010.08
2023-08-15T00:56:14.387Z,1010.12
2023-08-15T00:57:59.403Z,1010.1
2023-08-15T00:59:44.451Z,1009.95
2023-08-15T01:01:29.466Z,1009.97
2023-08-15T01:03:14.469Z,1009.87
2023-08-15T01:04:59.396Z,1009.91
2023-08-15T01:06:44.418Z,1009.9
2023-08-15T01:08:29.417Z,1009.93
2023-08-15T01:10:14.399Z,1009.91
2023-08-15T01:11:59.429Z,1009.85
2023-08-15T01:13:44.424Z,1009.85
2023-08-15T01:15:30.049Z,1009.71
2023-08-15T01:17:14.400Z,1009.66
2023-08-15T01:19:00.058Z,1009.69
2023-08-15T01:20:44.399Z,1009.65
2023-08-15T01:22:29.404Z,1009.79
2023-08-15T01:24:14.411Z,1009.78
2023-08-15T01:25:59.433Z,1009.74
2023-08-15T01:27:44.473Z,1009.76
2023-08-15T01:29:29.440Z,1009.73
2023-08-15T01:31:14.455Z,1009.67
2023-08-15T01:32:59.472Z,1009.7
2023-08-15T01:34:44.442Z,1009.6
2023-08-15T01:36:29.432Z,1009.67
2023-08-15T01:38:14.454Z,1009.67
2023-08-15T01:39:59.427Z,1009.72
2023-08-15T01:41:44.435Z,1009.63
2023-08-15T01:43:29.488Z,1009.6
2023-08-15T01:45:14.471Z,1009.64
2023-08-15T01:46:59.482Z,1009.52
2023-08-15T01:48:45.077Z,1009.62
2023-08-15T01:50:29.442Z,1009.76
2023-08-15T01:52:14.471Z,1009.82
2023-08-15T01:53:59.479Z,1009.96
2023-08-15T01:55:44.469Z,1009.88
2023-08-15T01:57:29.474Z,1009.93
2023-08-15T01:59:14.591Z,1009.85
2023-08-15T02:00:59.519Z,1009.91
2023-08-15T02:02:44.486Z,1009.96
2023-08-15T02:04:29.778Z,1009.98
2023-08-15T02:06:14.488Z,1009.94
2023-08-15T02:07:59.503Z,1009.96
2023-08-15T02:09:44.475Z,1010.02
2023-08-15T02:11:29.479Z,1009.96
2023-08-15T02:13:14.484Z,1010.13
2023-08-15T02:14:59.527Z,1009.98
2023-08-15T02:16:44.517Z,1010.24
2023-08-15T02:18:29.497Z,1010.23
2023-08-15T02:20:14.495Z,1010.26
2023-08-15T02:21:59.515Z,1010.25
2023-08-15T02:23:44.519Z,1010.17
2023-08-15T02:25:29.548Z,1010.3
2023-08-15T02:27:14.512Z,1010.33
2023-08-15T02:28:59.508Z,1010.24
2023-08-15T02:30:44.606Z,1010.24
2023-08-15T02:32:29.564Z,1010.28
2023-08-15T02:34:14.530Z,1010.27
2023-08-15T02:35:59.539Z,1010.26
2023-08-15T02:37:44.524Z,1010.29
2023-08-15T02:39:29.529Z,1010.43
2023-08-15T02:41:14.568Z,1010.39
2023-08-15T02:42:59.542Z,1010.46
2023-08-15T02:44:44.558Z,1010.39
2023-08-15T02:46:29.694Z,1010.42
2023-08-15T02:48:14.556Z,1010.34
2023-08-15T02:49:59.556Z,1010.32
2023-08-15T02:51:44.561Z,1010.3
2023-08-15T02:53:29.564Z,1010.36
2023-08-15T02:55:14.563Z,1010.4
2023-08-15T02:56:59.589Z,1010.35
2023-08-15T02:58:44.589Z,1010.36
2023-08-15T03:00:29.583Z,1010.36
2023-08-15T03:02:14.624Z,1010.26
2023-08-15T03:03:59.580Z,1010.26
2023-08-15T03:05:44.604Z,1010.32
2023-08-15T03:07:29.604Z,1010.01
2023-08-15T03:09:14.585Z,1010.01
2023-08-15T03:10:59.635Z,1010.06
2023-08-15T03:12:44.646Z,1010.14
2023-08-15T03:14:29.612Z,1010.22
2023-08-15T03:16:14.641Z,1010.13
2023-08-15T03:17:59.669Z,1010.02
2023-08-15T03:19:44.635Z,1009.93
2023-08-15T03:21:29.604Z,1009.87
2023-08-15T03:23:14.636Z,1010.06
2023-08-15T03:24:59.632Z,1010.12
2023-08-15T03:26:44.621Z,1010.12
2023-08-15T03:28:29.648Z,1010.03
2023-08-15T03:30:14.660Z,1010.09
2023-08-15T03:31:59.682Z,1010.05
2023-08-15T03:33:44.672Z,1010.05
2023-08-15T03:35:29.621Z,1009.87
2023-08-15T03:37:14.658Z,1009.81
2023-08-15T03:38:59.635Z,1009.87
2023-08-15T03:40:44.653Z,1009.71
2023-08-15T03:42:29.652Z,1009.53
2023-08-15T03:44:14.684Z,1009.76
2023-08-15T03:45:59.743Z,1009.89
2023-08-15T03:47:44.679Z,1009.93
2023-08-15T03:49:29.709Z,1009.77
2023-08-15T03:51:15.740Z,1009.79
2023-08-15T03:52:59.654Z,1009.78
2023-08-15T03:54:44.665Z,1009.94
2023-08-15T03:56:29.652Z,1009.82
2023-08-15T03:58:14.667Z,1009.84
2023-08-15T03:59:59.675Z,1009.76
2023-08-15T04:01:44.686Z,1009.79
2023-08-15T04:03:29.697Z,1009.88
2023-08-15T04:05:14.708Z,1009.93
2023-08-15T04:06:59.665Z,1009.88
2023-08-15T04:08:44.663Z,1009.91
2023-08-15T04:10:29.691Z,1010.05
2023-08-15T04:12:14.680Z,1010.04
2023-08-15T04:13:59.668Z,1010.11
2023-08-15T04:15:44.714Z,1010.24
2023-08-15T04:17:29.711Z,1010.23
2023-08-15T04:19:14.706Z,1010.2
2023-08-15T04:20:59.718Z,1010.3
2023-08-15T04:22:44.687Z,1010.27
2023-08-15T04:24:29.712Z,1010.43
2023-08-15T04:26:14.720Z,1010.47
2023-08-15T04:27:59.684Z,1010.53
2023-08-15T04:29:44.701Z,1010.6
2023-08-15T04:31:29.740Z,1010.68
2023-08-15T04:33:14.724Z,1010.69
2023-08-15T04:34:59.721Z,1010.76
2023-08-15T04:36:44.751Z,1010.8
2023-08-15T04:38:29.710Z,1010.84
2023-08-15T04:40:14.741Z,1010.92
2023-08-15T04:41:59.731Z,1011.08
2023-08-15T04:43:44.722Z,1011.17
2023-08-15T04:45:29.725Z,1011.15
2023-08-15T04:47:14.733Z,1011.19
2023-08-15T04:48:59.728Z,1011.13
2023-08-15T04:50:44.738Z,1011.23
2023-08-15T04:52:29.860Z,1011.31
2023-08-15T04:54:14.758Z,1011.34
2023-08-15T04:55:59.759Z,1011.47
2023-08-15T04:57:44.757Z,1011.42
2023-08-15T04:59:29.773Z,1011.37
2023-08-15T05:01:14.781Z,1011.2
2023-08-15T05:02:59.794Z,1011.38
2023-08-15T05:04:44.751Z,1011.36
2023-08-15T05:06:29.777Z,1011.38
2023-08-15T05:08:14.807Z,1011.38
2023-08-15T05:09:59.774Z,1011.42
2023-08-15T05:11:44.763Z,1011.49
2023-08-15T05:13:29.788Z,1011.66
2023-08-15T05:15:14.790Z,1011.68
2023-08-15T05:16:59.779Z,1011.75
2023-08-15T05:18:44.792Z,1011.78
2023-08-15T05:20:29.806Z,1011.9
2023-08-15T05:22:14.851Z,1011.84
2023-08-15T05:23:59.829Z,1011.9
2023-08-15T05:25:44.828Z,1011.92
2023-08-15T05:27:29.836Z,1011.92
2023-08-15T05:29:14.809Z,1011.89
2023-08-15T05:30:59.854Z,1011.82
2023-08-15T05:32:44.844Z,1011.83
2023-08-15T05:34:29.837Z,1011.84
2023-08-15T05:36:14.843Z,1011.83
2023-08-15T05:37:59.825Z,1011.95
2023-08-15T05:39:44.836Z,1011.98
2023-08-15T05:41:29.828Z,1011.94
2023-08-15T05:43:14.816Z,1011.83
2023-08-15T05:44:59.827Z,1011.95
2023-08-15T05:46:44.837Z,1011.94
2023-08-15T05:48:29.857Z,1011.94
2023-08-15T05:50:14.840Z,1011.99
2023-08-15T05:51:59.824Z,1012.1
2023-08-15T05:53:44.863Z,1012.09
2023-08-15T05:55:29.886Z,1012.07
2023-08-15T05:57:14.839Z,1012.17
2023-08-15T05:58:59.856Z,1012.05
2023-08-15T06:00:44.886Z,1012.08
2023-08-15T06:02:29.919Z,1012.1
2023-08-15T06:04:14.872Z,1012.19
2023-08-15T06:05:59.856Z,1012.28
2023-08-15T06:07:44.852Z,1012.36
2023-08-15T06:09:29.862Z,1012.36
2023-08-15T06:11:14.893Z,1012.27
2023-08-15T06:12:59.890Z,1012.28
2023-08-15T06:14:45.205Z,1012.37
2023-08-15T06:16:29.895Z,1012.33
2023-08-15T06:18:14.872Z,1012.3
2023-08-15T06:19:59.883Z,1012.4
2023-08-15T06:21:44.877Z,1012.4
2023-08-15T06:23:29.882Z,1012.38
2023-08-15T06:25:14.871Z,1012.35
2023-08-15T06:26:59.910Z,1012.4
2023-08-15T06:28:44.869Z,1012.42
2023-08-15T06:30:29.922Z,1012.43
2023-08-15T06:32:14.901Z,1012.48
2023-08-15T06:33:59.881Z,1012.4
2023-08-15T06:35:44.889Z,1012.51
2023-08-15T06:37:29.889Z,1012.62
2023-08-15T06:39:14.906Z,1012.43
2023-08-15T06:40:59.919Z,1012.33
2023-08-15T06:42:44.950Z,1012.34
2023-08-15T06:44:29.922Z,1012.39
2023-08-15T06:46:14.957Z,1012.47
2023-08-15T06:47:59.969Z,1012.46
2023-08-15T06:49:44.929Z,1012.41
2023-08-15T06:51:29.957Z,1012.45
2023-08-15T06:53:14.924Z,1012.53
2023-08-15T06:55:00.536Z,1012.58
2023-08-15T06:56:44.954Z,1012.5
2023-08-15T06:58:29.964Z,1012.53
2023-08-15T07:00:14.961Z,1012.48
2023-08-15T07:01:59.960Z,1012.47
2023-08-15T07:03:45.079Z,1012.46
2023-08-15T07:05:29.953Z,1012.44
2023-08-15T07:07:14.978Z,1012.52
2023-08-15T07:08:59.971Z,1012.55
2023-08-15T07:10:44.969Z,1012.53
2023-08-15T07:12:29.978Z,1012.62
2023-08-15T07:14:14.988Z,1012.59
2023-08-15T07:15:59.972Z,1012.68
2023-08-15T07:17:45.009Z,1012.6
2023-08-15T07:19:29.970Z,1012.61
2023-08-15T07:21:15.152Z,1012.62
2023-08-15T07:22:59.982Z,1012.62
2023-08-15T07:24:44.976Z,1012.63
2023-08-15T07:26:29.968Z,1012.64
2023-08-15T07:28:15.000Z,1012.65
2023-08-15T07:30:00.039Z,1012.67
2023-08-15T07:31:45.002Z,1012.69
2023-08-15T07:33:30.006Z,1012.63
2023-08-15T07:35:15.013Z,1012.61
2023-08-15T07:36:59.994Z,1012.63
2023-08-15T07:38:45.012Z,1012.68
2023-08-15T07:40:30.000Z,1012.66
2023-08-15T07:42:14.992Z,1012.68
2023-08-15T07:44:00.015Z,1012.71
2023-08-15T07:45:45.095Z,1012.74
2023-08-15T07:47:30.338Z,1012.7
2023-08-15T07:49:15.004Z,1012.84
2023-08-15T07:51:00.031Z,1012.74
2023-08-15T07:52:45.006Z,1012.79
2023-08-15T07:54:30.016Z,1012.78
2023-08-15T07:56:15.029Z,1012.79
2023-08-15T07:58:00.011Z,1012.83
2023-08-15T07:59:45.025Z,1012.81
2023-08-15T08:01:30.057Z,1012.84
2023-08-15T08:03:15.591Z,1012.82
2023-08-15T08:05:00.064Z,1012.9
2023-08-15T08:06:45.070Z,1012.84
2023-08-15T08:08:30.049Z,1012.89
2023-08-15T08:10:15.038Z,1012.89
2023-08-15T08:12:00.061Z,1012.91
2023-08-15T08:13:45.037Z,1012.93
2023-08-15T08:15:30.069Z,1012.85
2023-08-15T08:17:15.071Z,1012.9
2023-08-15T08:19:00.081Z,1012.95
2023-08-15T08:20:45.064Z,1013
2023-08-15T08:22:30.071Z,1012.99
2023-08-15T08:24:15.715Z,1012.98
2023-08-15T08:26:00.070Z,1013.06
2023-08-15T08:27:45.074Z,1013.02
2023-08-15T08:29:30.091Z,1013.06
2023-08-15T08:31:15.086Z,1013.11
2023-08-15T08:33:00.129Z,1013.11
2023-08-15T08:34:45.099Z,1013.16
2023-08-15T08:36:30.078Z,1013.15
2023-08-15T08:38:15.106Z,1013.22
2023-08-15T08:40:00.140Z,1013.23
2023-08-15T08:41:45.086Z,1013.11
2023-08-15T08:43:30.085Z,1013.09
2023-08-15T08:45:15.217Z,1013.14
2023-08-15T08:47:00.115Z,1013.13
2023-08-15T08:48:45.131Z,1013.11
2023-08-15T08:50:30.114Z,1013.11
2023-08-15T08:52:15.112Z,1013.13
2023-08-15T08:54:00.095Z,1013.09
2023-08-15T08:55:45.103Z,1013.08
2023-08-15T08:57:30.420Z,1013.18
2023-08-15T08:59:15.092Z,1013.19
2023-08-15T09:01:00.130Z,1013.05
2023-08-15T09:02:45.164Z,1013.11
2023-08-15T09:04:30.181Z,1013.16
2023-08-15T09:06:15.118Z,1013.2
2023-08-15T09:08:00.134Z,1013.21
2023-08-15T09:09:45.140Z,1013.09
2023-08-15T09:11:30.129Z,1013.07
2023-08-15T09:13:15.142Z,1013.09
2023-08-15T09:15:00.144Z,1013.12
2023-08-15T09:16:45.131Z,1013.12
2023-08-15T09:18:30.163Z,1013.15
2023-08-15T09:20:15.485Z,1013.1
2023-08-15T09:22:00.156Z,1013.23
2023-08-15T09:23:45.156Z,1013.21
2023-08-15T09:25:30.160Z,1013.26
2023-08-15T09:27:15.155Z,1013.31
2023-08-15T09:29:00.183Z,1013.26
2023-08-15T09:30:45.181Z,1013.23
2023-08-15T09:32:30.182Z,1013.4
2023-08-15T09:34:15.209Z,1013.36
2023-08-15T09:36:00.210Z,1013.27
2023-08-15T09:37:45.211Z,1013.28
2023-08-15T09:39:30.192Z,1013.31
2023-08-15T09:41:15.196Z,1013.26
2023-08-15T09:43:00.215Z,1013.42
2023-08-15T09:44:45.215Z,1013.39
2023-08-15T09:46:30.261Z,1013.41
2023-08-15T09:48:15.180Z,1013.34
2023-08-15T09:50:00.208Z,1013.45
2023-08-15T09:51:45.236Z,1013.47
2023-08-15T09:53:30.197Z,1013.5
2023-08-15T09:55:15.225Z,1013.49
2023-08-15T09:57:00.242Z,1013.41
2023-08-15T09:58:45.215Z,1013.52
2023-08-15T10:00:30.218Z,1013.51
2023-08-15T10:02:15.257Z,1013.56
2023-08-15T10:04:00.294Z,1013.58
2023-08-15T10:05:45.248Z,1013.51
2023-08-15T10:07:30.295Z,1013.47
2023-08-15T10:09:15.262Z,1013.5
2023-08-15T10:11:00.232Z,1013.49
2023-08-15T10:12:45.246Z,1013.56
2023-08-15T10:14:30.238Z,1013.46
2023-08-15T10:16:15.268Z,1013.6
2023-08-15T10:18:00.454Z,1013.55
2023-08-15T10:19:45.283Z,1013.57
2023-08-15T10:21:30.271Z,1013.64
2023-08-15T10:23:15.301Z,1013.71
2023-08-15T10:25:01.595Z,1013.73
2023-08-15T10:26:45.276Z,1013.68
2023-08-15T10:28:30.273Z,1013.55
2023-08-15T10:30:16.764Z,1013.63
2023-08-15T10:32:00.276Z,1013.73
2023-08-15T10:33:45.264Z,1013.7
2023-08-15T10:35:32.813Z,1013.69
2023-08-15T10:37:15.281Z,1013.72
2023-08-15T10:39:00.290Z,1013.65
2023-08-15T10:40:45.567Z,1013.7
2023-08-15T10:42:30.284Z,1013.68
2023-08-15T10:44:15.307Z,1013.72
2023-08-15T10:46:00.351Z,1013.69
2023-08-15T10:47:45.326Z,1013.77
2023-08-15T10:49:30.315Z,1013.79
2023-08-15T10:51:15.307Z,1013.69
2023-08-15T10:53:00.297Z,1013.68
2023-08-15T10:54:45.646Z,1013.62
2023-08-15T10:56:30.303Z,1013.67
2023-08-15T10:58:15.304Z,1013.62
2023-08-15T11:00:00.336Z,1013.74
2023-08-15T11:01:45.450Z,1013.74
2023-08-15T11:03:30.351Z,1013.68
2023-08-15T11:05:15.364Z,1013.72
2023-08-15T11:07:00.314Z,1013.73
2023-08-15T11:08:45.312Z,1013.65
2023-08-15T11:10:30.375Z,1013.69
2023-08-15T11:12:15.347Z,1013.65
2023-08-15T11:14:00.340Z,1013.66
2023-08-15T11:15:45.338Z,1013.7
2023-08-15T11:17:30.463Z,1013.68
2023-08-15T11:19:15.332Z,1013.8
2023-08-15T11:21:00.340Z,1013.85
2023-08-15T11:22:45.339Z,1013.7
2023-08-15T11:24:30.337Z,1013.8
2023-08-15T11:26:15.408Z,1013.8
2023-08-15T11:28:00.386Z,1013.77
2023-08-15T11:29:46.564Z,1013.77
2023-08-15T11:31:30.378Z,1013.77
2023-08-15T11:33:15.353Z,1013.73
2023-08-15T11:35:00.382Z,1013.76
2023-08-15T11:36:45.389Z,1013.76
2023-08-15T11:38:30.364Z,1013.72
2023-08-15T11:40:15.359Z,1013.8
2023-08-15T11:42:00.440Z,1013.66
2023-08-15T11:43:45.416Z,1013.84
2023-08-15T11:45:30.415Z,1013.89
2023-08-15T11:47:15.406Z,1013.83
2023-08-15T11:49:00.388Z,1013.85
2023-08-15T11:50:45.404Z,1013.83
2023-08-15T11:52:30.395Z,1013.89
2023-08-15T11:54:15.387Z,1013.95
2023-08-15T11:56:00.420Z,1013.89
2023-08-15T11:57:45.464Z,1013.89
2023-08-15T11:59:30.422Z,1013.78
2023-08-15T12:01:15.491Z,1013.86
2023-08-15T12:03:00.479Z,1013.92
2023-08-15T12:04:45.427Z,1013.88
2023-08-15T12:06:30.414Z,1013.87
2023-08-15T12:08:15.412Z,1013.86
2023-08-15T12:10:00.596Z,1013.95
2023-08-15T12:11:45.412Z,1013.91
2023-08-15T12:13:30.466Z,1013.93
2023-08-15T12:15:15.408Z,1013.98
2023-08-15T12:17:00.429Z,1013.9
2023-08-15T12:18:45.456Z,1013.95
2023-08-15T12:20:30.431Z,1013.85
2023-08-15T12:22:15.426Z,1013.93
2023-08-15T12:24:00.435Z,1013.93
2023-08-15T12:25:45.437Z,1013.99
2023-08-15T12:27:30.479Z,1013.97
2023-08-15T12:29:17.956Z,1013.97
2023-08-15T12:31:00.461Z,1013.94
2023-08-15T12:32:45.533Z,1013.93
2023-08-15T12:34:30.455Z,1014
2023-08-15T12:36:15.501Z,1013.92
2023-08-15T12:38:00.492Z,1013.96
2023-08-15T12:39:45.477Z,1014
2023-08-15T12:41:30.524Z,1014
2023-08-15T12:43:15.475Z,1013.99
2023-08-15T12:45:00.567Z,1013.91
2023-08-15T12:46:45.817Z,1013.89
2023-08-15T12:48:30.506Z,1013.88
2023-08-15T12:50:15.486Z,1013.87
2023-08-15T12:52:00.519Z,1013.88
2023-08-15T12:53:45.513Z,1013.96
2023-08-15T12:55:30.508Z,1013.88
2023-08-15T12:57:15.531Z,1013.84
2023-08-15T12:59:00.530Z,1013.85
2023-08-15T13:00:46.100Z,1013.89
2023-08-15T13:02:30.519Z,1013.85
2023-08-15T13:04:15.522Z,1013.87
2023-08-15T13:06:00.527Z,1013.9
2023-08-15T13:07:45.519Z,1013.88
2023-08-15T13:09:30.524Z,1013.86
2023-08-15T13:11:15.520Z,1013.87
2023-08-15T13:13:00.530Z,1013.84
2023-08-15T13:14:45.531Z,1013.9
2023-08-15T13:16:30.588Z,1013.87
2023-08-15T13:18:15.585Z,1013.78
2023-08-15T13:20:00.591Z,1013.8
2023-08-15T13:21:45.540Z,1013.85
2023-08-15T13:23:30.555Z,1013.85
2023-08-15T13:25:15.561Z,1013.74
2023-08-15T13:27:00.559Z,1013.81
2023-08-15T13:28:45.586Z,1013.76
2023-08-15T13:30:30.586Z,1013.77
2023-08-15T13:32:15.625Z,1013.71
2023-08-15T13:34:00.552Z,1013.83
2023-08-15T13:35:46.623Z,1013.84
2023-08-15T13:37:30.546Z,1013.76
2023-08-15T13:39:15.550Z,1013.7
2023-08-15T13:41:00.568Z,1013.75
2023-08-15T13:42:45.750Z,1013.8
2023-08-15T13:44:30.593Z,1013.83
2023-08-15T13:46:15.585Z,1013.88
2023-08-15T13:48:00.622Z,1013.84
2023-08-15T13:49:45.570Z,1013.8
2023-08-15T13:51:30.573Z,1013.82
2023-08-15T13:53:15.571Z,1013.86
2023-08-15T13:55:00.649Z,1013.8
2023-08-15T13:56:45.580Z,1013.79
2023-08-15T13:58:30.594Z,1013.77
2023-08-15T14:00:16.235Z,1013.87
2023-08-15T14:02:00.653Z,1013.88
2023-08-15T14:03:45.662Z,1013.84
2023-08-15T14:05:30.608Z,1013.93
2023-08-15T14:07:15.606Z,1013.96
2023-08-15T14:09:00.599Z,1013.9
2023-08-15T14:10:45.605Z,1013.82
2023-08-15T14:12:30.629Z,1013.85
2023-08-15T14:14:15.608Z,1013.8
2023-08-15T14:16:00.591Z,1013.79
2023-08-15T14:17:45.617Z,1013.88
2023-08-15T14:19:30.671Z,1013.76
2023-08-15T14:21:15.973Z,1013.84
2023-08-15T14:23:00.615Z,1013.81
2023-08-15T14:24:45.613Z,1013.77
2023-08-15T14:26:30.627Z,1013.71
2023-08-15T14:28:15.625Z,1013.79
2023-08-15T14:30:00.615Z,1013.85
2023-08-15T14:31:45.643Z,1013.76
2023-08-15T14:33:30.645Z,1013.69
2023-08-15T14:35:15.673Z,1013.64
2023-08-15T14:37:00.651Z,1013.71
2023-08-15T14:38:45.951Z,1013.69
2023-08-15T14:40:30.620Z,1013.71
2023-08-15T14:42:15.672Z,1013.61
2023-08-15T14:44:00.639Z,1013.64
2023-08-15T14:45:45.653Z,1013.75
2023-08-15T14:47:30.715Z,1013.65
2023-08-15T14:49:15.677Z,1013.77
2023-08-15T14:51:00.976Z,1013.78
2023-08-15T14:52:45.649Z,1013.71
2023-08-15T14:54:30.695Z,1013.71
2023-08-15T14:56:16.737Z,1013.73
2023-08-15T14:58:00.673Z,1013.75
2023-08-15T14:59:45.666Z,1013.69
2023-08-15T15:01:30.703Z,1013.64
2023-08-15T15:03:15.706Z,1013.72
2023-08-15T15:05:00.673Z,1013.6
2023-08-15T15:06:45.707Z,1013.64
2023-08-15T15:08:30.693Z,1013.65
2023-08-15T15:10:15.703Z,1013.7
2023-08-15T15:12:00.678Z,1013.68
2023-08-15T15:13:45.732Z,1013.69
2023-08-15T15:15:41.226Z,1013.61
2023-08-15T15:17:15.711Z,1013.66
2023-08-15T15:19:00.740Z,1013.64
2023-08-15T15:20:45.799Z,1013.6
2023-08-15T15:22:30.742Z,1013.56
2023-08-15T15:24:15.735Z,1013.57
2023-08-15T15:26:00.761Z,1013.62
2023-08-15T15:27:45.742Z,1013.56
2023-08-15T15:29:30.743Z,1013.59
2023-08-15T15:31:15.758Z,1013.62
2023-08-15T15:33:00.763Z,1013.58
2023-08-15T15:34:45.755Z,1013.5
2023-08-15T15:36:30.811Z,1013.65
2023-08-15T15:38:15.787Z,1013.59
2023-08-15T15:40:00.772Z,1013.6
2023-08-15T15:41:45.800Z,1013.64
2023-08-15T15:43:30.771Z,1013.72
2023-08-15T15:45:15.758Z,1013.68
2023-08-15T15:47:00.879Z,1013.58
2023-08-15T15:48:45.782Z,1013.68
2023-08-15T15:50:30.811Z,1013.6
2023-08-15T15:52:15.821Z,1013.55
2023-08-15T15:54:00.846Z,1013.65
2023-08-15T15:55:45.803Z,1013.66
2023-08-15T15:57:30.782Z,1013.74
2023-08-15T15:59:15.816Z,1013.69
2023-08-15T16:01:00.833Z,1013.74
2023-08-15T16:02:45.810Z,1013.68
2023-08-15T16:04:30.896Z,1013.74
2023-08-15T16:06:15.795Z,1013.78
2023-08-15T16:08:00.803Z,1013.79
2023-08-15T16:09:45.859Z,1013.85
2023-08-15T16:11:30.797Z,1013.75
2023-08-15T16:13:15.802Z,1013.77
2023-08-15T16:15:00.829Z,1013.8
2023-08-15T16:16:45.812Z,1013.91
2023-08-15T16:18:30.835Z,1013.81
2023-08-15T16:20:15.839Z,1013.76
2023-08-15T16:22:00.817Z,1013.87
2023-08-15T16:23:45.829Z,1013.85
2023-08-15T16:25:30.870Z,1013.86
2023-08-15T16:27:15.854Z,1013.82
2023-08-15T16:29:00.861Z,1013.83
2023-08-15T16:30:45.846Z,1013.82
2023-08-15T16:32:30.874Z,1013.87
2023-08-15T16:34:15.867Z,1013.89
2023-08-15T16:36:00.865Z,1013.83
2023-08-15T16:37:45.855Z,1013.85
2023-08-15T16:39:30.865Z,1013.82
2023-08-15T16:41:15.900Z,1013.86
2023-08-15T16:43:00.873Z,1013.87
2023-08-15T16:44:45.864Z,1013.93
2023-08-15T16:46:30.902Z,1013.86
2023-08-15T16:48:15.949Z,1013.9
2023-08-15T16:50:00.915Z,1013.92
2023-08-15T16:51:45.875Z,1013.91
2023-08-15T16:53:30.897Z,1013.94
2023-08-15T16:55:15.870Z,1013.9
2023-08-15T16:57:00.898Z,1013.91
2023-08-15T16:58:45.868Z,1013.9
2023-08-15T17:00:30.911Z,1013.96
2023-08-15T17:02:15.940Z,1013.91
2023-08-15T17:04:00.981Z,1013.85
2023-08-15T17:05:45.879Z,1013.91
2023-08-15T17:07:30.883Z,1013.95
2023-08-15T17:09:15.909Z,1014
2023-08-15T17:11:00.889Z,1013.94
2023-08-15T17:12:45.918Z,1013.86
2023-08-15T17:14:30.894Z,1013.88
2023-08-15T17:16:15.909Z,1013.94
2023-08-15T17:18:00.920Z,1013.88
2023-08-15T17:19:47.521Z,1013.95
2023-08-15T17:21:30.928Z,1013.9
2023-08-15T17:23:15.926Z,1013.98
2023-08-15T17:25:00.930Z,1013.94
2023-08-15T17:26:45.926Z,1014.05
2023-08-15T17:28:30.974Z,1013.97
2023-08-15T17:30:15.940Z,1013.99
2023-08-15T17:32:00.917Z,1014.05
2023-08-15T17:33:45.945Z,1014.03
2023-08-15T17:35:30.956Z,1014.11
2023-08-15T17:37:15.984Z,1014.11
2023-08-15T17:39:00.951Z,1014.02
2023-08-15T17:40:45.938Z,1014.08
2023-08-15T17:42:30.964Z,1014.06
2023-08-15T17:44:15.994Z,1014.12
2023-08-15T17:46:01.052Z,1014.18
2023-08-15T17:47:46.269Z,1014.08
2023-08-15T17:49:30.957Z,1014.1
2023-08-15T17:51:15.997Z,1014.1
2023-08-15T17:53:00.952Z,1014.18
2023-08-15T17:54:45.983Z,1014.17
2023-08-15T17:56:30.965Z,1014.05
2023-08-15T17:58:15.987Z,1014.07
2023-08-15T18:00:01.016Z,1014.13
2023-08-15T18:01:46.008Z,1014.17
2023-08-15T18:03:31.023Z,1014.16
2023-08-15T18:05:15.993Z,1014.23
2023-08-15T18:07:00.995Z,1014.19
2023-08-15T18:08:45.992Z,1014.23
2023-08-15T18:10:31.005Z,1014.29
2023-08-15T18:12:16.006Z,1014.27
2023-08-15T18:14:01.022Z,1014.18
2023-08-15T18:15:46.036Z,1014.22
2023-08-15T18:17:31.017Z,1014.23
2023-08-15T18:19:16.348Z,1014.31
2023-08-15T18:21:01.027Z,1014.38
2023-08-15T18:22:46.010Z,1014.37
2023-08-15T18:24:31.020Z,1014.44
2023-08-15T18:26:16.044Z,1014.41
2023-08-15T18:28:01.042Z,1014.53
2023-08-15T18:29:46.027Z,1014.43
2023-08-15T18:31:31.162Z,1014.5
2023-08-15T18:33:16.073Z,1014.52
2023-08-15T18:35:01.040Z,1014.58
2023-08-15T18:36:46.074Z,1014.48
2023-08-15T18:38:31.036Z,1014.62
2023-08-15T18:40:16.053Z,1014.64
2023-08-15T18:42:01.035Z,1014.66
2023-08-15T18:43:46.033Z,1014.68
2023-08-15T18:45:31.060Z,1014.74
2023-08-15T18:47:16.468Z,1014.84
2023-08-15T18:49:01.055Z,1014.8
2023-08-15T18:50:46.065Z,1014.77
2023-08-15T18:52:31.106Z,1014.85
2023-08-15T18:54:16.063Z,1014.9
2023-08-15T18:56:01.070Z,1014.96
2023-08-15T18:57:46.091Z,1014.86
2023-08-15T18:59:31.098Z,1015.02
2023-08-15T19:01:16.094Z,1015.05
2023-08-15T19:03:01.214Z,1015.08
2023-08-15T19:04:46.061Z,1015.09
2023-08-15T19:06:31.106Z,1015.04
2023-08-15T19:08:16.103Z,1015.11
2023-08-15T19:10:01.103Z,1015.1
2023-08-15T19:11:46.102Z,1015.23
2023-08-15T19:13:31.108Z,1015.23
2023-08-15T19:15:16.112Z,1015.26
2023-08-15T19:17:01.083Z,1015.37
2023-08-15T19:18:46.134Z,1015.3
2023-08-15T19:20:31.087Z,1015.36
2023-08-15T19:22:16.736Z,1015.41
2023-08-15T19:24:01.131Z,1015.34
2023-08-15T19:25:46.090Z,1015.44
2023-08-15T19:27:31.132Z,1015.54
2023-08-15T19:29:16.126Z,1015.48
2023-08-15T19:31:01.146Z,1015.51
2023-08-15T19:32:46.119Z,1015.58
2023-08-15T19:34:31.158Z,1015.61
2023-08-15T19:36:16.112Z,1015.54
2023-08-15T19:38:01.139Z,1015.6
2023-08-15T19:39:46.112Z,1015.58
2023-08-15T19:41:31.131Z,1015.71
2023-08-15T19:43:16.154Z,1015.67
2023-08-15T19:45:01.173Z,1015.64
2023-08-15T19:46:46.138Z,1015.69
2023-08-15T19:48:31.147Z,1015.64
2023-08-15T19:50:16.180Z,1015.75
2023-08-15T19:52:01.122Z,1015.6
2023-08-15T19:53:46.176Z,1015.68
2023-08-15T19:55:32.596Z,1015.75
2023-08-15T19:57:16.135Z,1015.67
2023-08-15T19:59:01.160Z,1015.73
2023-08-15T20:00:46.205Z,1015.69
2023-08-15T20:02:31.204Z,1015.82
2023-08-15T20:04:16.179Z,1015.72
2023-08-15T20:06:01.213Z,1015.79
2023-08-15T20:07:46.190Z,1015.67
2023-08-15T20:09:31.175Z,1015.8
2023-08-15T20:11:16.173Z,1015.74
2023-08-15T20:13:01.180Z,1015.77
2023-08-15T20:14:46.164Z,1015.83
2023-08-15T20:16:31.189Z,1015.82
2023-08-15T20:18:16.284Z,1015.95
2023-08-15T20:20:01.202Z,1015.91
2023-08-15T20:21:46.223Z,1015.85
2023-08-15T20:23:31.211Z,1015.93
2023-08-15T20:25:16.477Z,1015.82
2023-08-15T20:27:01.203Z,1015.81
2023-08-15T20:28:46.200Z,1015.77
2023-08-15T20:30:31.211Z,1015.8
2023-08-15T20:32:16.242Z,1015.86
2023-08-15T20:34:01.209Z,1015.86
2023-08-15T20:35:46.208Z,1015.92
2023-08-15T20:37:31.244Z,1015.84
2023-08-15T20:39:16.211Z,1015.89
2023-08-15T20:41:01.213Z,1015.74
2023-08-15T20:42:46.246Z,1015.75
2023-08-15T20:44:31.258Z,1015.83
2023-08-15T20:46:16.234Z,1015.71
2023-08-15T20:48:01.259Z,1015.7
2023-08-15T20:49:46.226Z,1015.76
2023-08-15T20:51:31.232Z,1015.77
2023-08-15T20:53:16.283Z,1015.83
2023-08-15T20:55:01.269Z,1015.87
2023-08-15T20:56:46.260Z,1015.84
2023-08-15T20:58:32.807Z,1015.89
2023-08-15T21:00:16.252Z,1015.9
2023-08-15T21:02:01.274Z,1015.91
2023-08-15T21:03:46.231Z,1016.01
2023-08-15T21:05:31.538Z,1015.84
2023-08-15T21:07:16.269Z,1015.96
2023-08-15T21:09:01.309Z,1015.9
2023-08-15T21:10:46.272Z,1016.06
2023-08-15T21:12:31.290Z,1016.04
2023-08-15T21:14:16.266Z,1016.04